createdAt,value
2023-05-01T00:02:30.997Z,100751.22
2023-05-01T00:05:02.055Z,100749.20
2023-05-01T00:07:33.406Z,100749.29
2023-05-01T00:10:04.375Z,100749.17
2023-05-01T00:12:35.288Z,100750.25
2023-05-01T00:15:07.059Z,100751.55
2023-05-01T00:17:37.979Z,100749.33
2023-05-01T00:20:10.211Z,100747.33
2023-05-01T00:22:40.961Z,100748.73
2023-05-01T00:25:11.927Z,100756.51
2023-05-01T00:27:43.117Z,100758.59
2023-05-01T00:30:14.506Z,100761.07
2023-05-01T00:32:45.498Z,100758.68
2023-05-01T00:35:16.846Z,100757.36
2023-05-01T00:37:48.235Z,100754.83
2023-05-01T00:40:19.168Z,100752.07
2023-05-01T00:42:50.069Z,100753.60
2023-05-01T00:45:21.181Z,100755.48
2023-05-01T00:47:52.107Z,100756.87
2023-05-01T00:50:23.086Z,100762.19
2023-05-01T00:52:53.902Z,100765.37
2023-05-01T00:55:24.598Z,100770.63
2023-05-01T00:57:55.490Z,100771.74
2023-05-01T01:00:26.308Z,100773.96
2023-05-01T01:02:57.174Z,100777.64
2023-05-01T01:05:29.178Z,100779.16
2023-05-01T01:08:04.075Z,100779.91
2023-05-01T01:10:37.211Z,100782.45
2023-05-01T01:13:10.224Z,100786.73
2023-05-01T01:15:42.373Z,100791.60
2023-05-01T01:18:14.229Z,100790.05
2023-05-01T01:20:47.676Z,100792.26
2023-05-01T01:23:39.352Z,100791.84
2023-05-01T01:26:23.566Z,100791.38
2023-05-01T01:29:02.177Z,100794.73
2023-05-01T01:31:34.667Z,100792.30
2023-05-01T01:34:06.090Z,100787.51
2023-05-01T01:36:44.726Z,100788.95
2023-05-01T01:39:17.974Z,100790.88
2023-05-01T01:41:49.110Z,100792.13
2023-05-01T01:44:21.383Z,100794.89
2023-05-01T01:46:52.011Z,100797.98
2023-05-01T01:49:23.404Z,100799.60
2023-05-01T01:51:55.436Z,100802.45
2023-05-01T01:54:28.013Z,100802.20
2023-05-01T01:56:58.936Z,100802.84
2023-05-01T01:59:29.793Z,100805.11
2023-05-01T02:02:00.865Z,100805.55
2023-05-01T02:04:31.891Z,100811.09
2023-05-01T02:07:02.799Z,100807.41
2023-05-01T02:09:33.617Z,100809.56
2023-05-01T02:12:04.340Z,100813.01
2023-05-01T02:14:35.112Z,100810.95
2023-05-01T02:17:05.842Z,100811.44
2023-05-01T02:19:36.669Z,100813.91
2023-05-01T02:22:07.458Z,100814.11
2023-05-01T02:24:38.660Z,100818.91
2023-05-01T02:27:12.352Z,100822.16
2023-05-01T02:29:43.229Z,100826.91
2023-05-01T02:32:13.965Z,100826.63
2023-05-01T02:34:44.655Z,100825.60
2023-05-01T02:37:15.600Z,100827.48
2023-05-01T02:39:46.518Z,100831.27
2023-05-01T02:42:17.224Z,100834.92
2023-05-01T02:44:50.287Z,100836.81
2023-05-01T02:47:21.676Z,100832.95
2023-05-01T02:49:52.498Z,100833.14
2023-05-01T02:52:23.279Z,100832.38
2023-05-01T02:54:54.103Z,100830.16
2023-05-01T02:57:24.872Z,100834.06
2023-05-01T02:59:56.835Z,100832.92
2023-05-01T03:02:27.842Z,100838.49
2023-05-01T03:04:58.681Z,100840.08
2023-05-01T03:07:35.209Z,100842.75
2023-05-01T03:10:08.046Z,100837.52
2023-05-01T03:12:39.013Z,100842.35
2023-05-01T03:15:12.163Z,100841.55
2023-05-01T03:17:43.046Z,100845.08
2023-05-01T03:20:14.467Z,100849.83
2023-05-01T03:22:45.352Z,100854.14
2023-05-01T03:25:16.478Z,100849.33
2023-05-01T03:27:47.259Z,100850.80
2023-05-01T03:30:18.293Z,100850.40
2023-05-01T03:32:49.098Z,100850.98
2023-05-01T03:35:20.059Z,100853.91
2023-05-01T03:37:51.043Z,100860.98
2023-05-01T03:40:21.931Z,100861.84
2023-05-01T03:42:52.715Z,100866.46
2023-05-01T03:45:23.774Z,100867.44
2023-05-01T03:47:54.771Z,100875.11
2023-05-01T03:50:25.613Z,100878.88
2023-05-01T03:52:56.697Z,100877.58
2023-05-01T03:55:27.503Z,100883.55
2023-05-01T03:57:58.280Z,100885.52
2023-05-01T04:00:29.253Z,100886.00
2023-05-01T04:03:00.379Z,100891.08
2023-05-01T04:05:31.388Z,100891.30
2023-05-01T04:08:02.131Z,100900.64
2023-05-01T04:10:33.196Z,100903.04
2023-05-01T04:13:03.870Z,100903.24
2023-05-01T04:15:34.641Z,100904.41
2023-05-01T04:18:05.544Z,100907.18
2023-05-01T04:20:36.475Z,100913.28
2023-05-01T04:23:07.760Z,100915.58
2023-05-01T04:25:38.639Z,100925.21
2023-05-01T04:28:09.403Z,100924.98
2023-05-01T04:30:40.239Z,100929.45
2023-05-01T04:33:11.875Z,100933.92
2023-05-01T04:35:43.209Z,100938.31
2023-05-01T04:38:14.087Z,100941.13
2023-05-01T04:40:44.941Z,100950.37
2023-05-01T04:43:15.600Z,100964.13
2023-05-01T04:45:46.528Z,100977.76
2023-05-01T04:48:17.344Z,100976.88
2023-05-01T04:50:48.094Z,100986.48
2023-05-01T04:53:18.926Z,100989.20
2023-05-01T04:55:49.721Z,100990.05
2023-05-01T04:58:20.556Z,100987.40
2023-05-01T05:00:51.340Z,100988.17
2023-05-01T05:03:22.286Z,100994.56
2023-05-01T05:05:53.108Z,100997.45
2023-05-01T05:08:24.018Z,100995.13
2023-05-01T05:11:00.264Z,100999.04
2023-05-01T05:13:31.138Z,101001.54
2023-05-01T05:16:02.191Z,101002.25
2023-05-01T05:18:32.976Z,101005.69
2023-05-01T05:21:06.294Z,101009.73
2023-05-01T05:23:37.068Z,101007.23
2023-05-01T05:26:07.910Z,101006.08
2023-05-01T05:28:38.646Z,101010.75
2023-05-01T05:31:09.504Z,101013.54
2023-05-01T05:33:40.335Z,101023.88
2023-05-01T05:36:11.220Z,101025.52
2023-05-01T05:38:42.729Z,101026.52
2023-05-01T05:41:13.490Z,101027.17
2023-05-01T05:43:44.302Z,101028.08
2023-05-01T05:46:15.103Z,101028.92
2023-05-01T05:48:45.831Z,101036.29
2023-05-01T05:51:17.311Z,101037.23
2023-05-01T05:53:48.037Z,101037.04
2023-05-01T05:56:18.823Z,101036.44
2023-05-01T05:58:49.580Z,101037.61
2023-05-01T06:01:20.318Z,101038.05
2023-05-01T06:03:51.171Z,101042.05
2023-05-01T06:06:22.211Z,101045.41
2023-05-01T06:08:53.121Z,101049.48
2023-05-01T06:11:24.024Z,101052.56
2023-05-01T06:13:54.661Z,101050.86
2023-05-01T06:16:25.936Z,101049.33
2023-05-01T06:18:56.617Z,101056.40
2023-05-01T06:21:27.408Z,101059.91
2023-05-01T06:23:58.168Z,101061.14
2023-05-01T06:26:29.005Z,101061.98
2023-05-01T06:28:59.745Z,101064.36
2023-05-01T06:31:30.555Z,101062.77
2023-05-01T06:34:01.312Z,101063.92
2023-05-01T06:36:32.050Z,101067.07
2023-05-01T06:39:02.924Z,101067.95
2023-05-01T06:41:34.450Z,101076.85
2023-05-01T06:44:05.257Z,101074.73
2023-05-01T06:46:36.165Z,101078.45
2023-05-01T06:49:08.005Z,101079.77
2023-05-01T06:51:38.950Z,101081.45
2023-05-01T06:54:09.873Z,101079.74
2023-05-01T06:56:41.049Z,101081.14
2023-05-01T06:59:11.761Z,101084.61
2023-05-01T07:01:42.554Z,101085.98
2023-05-01T07:04:13.310Z,101093.56
2023-05-01T07:06:44.194Z,101091.65
2023-05-01T07:09:15.520Z,101092.88
2023-05-01T07:11:46.697Z,101095.44
2023-05-01T07:14:17.503Z,101098.36
2023-05-01T07:16:48.395Z,101099.13
2023-05-01T07:19:19.391Z,101101.38
2023-05-01T07:21:50.256Z,101105.95
2023-05-01T07:24:21.605Z,101103.02
2023-05-01T07:26:52.844Z,101104.92
2023-05-01T07:29:23.803Z,101104.77
2023-05-01T07:31:54.708Z,101108.66
2023-05-01T07:34:25.529Z,101109.75
2023-05-01T07:36:56.534Z,101106.02
2023-05-01T07:39:27.369Z,101104.94
2023-05-01T07:41:59.798Z,101104.27
2023-05-01T07:44:30.738Z,101107.68
2023-05-01T07:47:05.873Z,101108.37
2023-05-01T07:49:39.928Z,101112.82
2023-05-01T07:52:11.170Z,101116.72
2023-05-01T07:54:41.966Z,101121.05
2023-05-01T07:57:12.675Z,101119.48
2023-05-01T07:59:43.430Z,101123.19
2023-05-01T08:02:14.636Z,101118.92
2023-05-01T08:04:46.423Z,101123.84
2023-05-01T08:07:17.272Z,101128.73
2023-05-01T08:09:48.732Z,101133.13
2023-05-01T08:12:19.511Z,101135.92
2023-05-01T08:14:50.482Z,101137.20
2023-05-01T08:17:21.693Z,101135.20
2023-05-01T08:19:56.580Z,101146.32
2023-05-01T08:22:27.688Z,101146.28
2023-05-01T08:24:58.405Z,101149.20
2023-05-01T08:27:29.253Z,101148.39
2023-05-01T08:30:00.153Z,101154.79
2023-05-01T08:32:30.936Z,101158.11
2023-05-01T08:35:02.017Z,101154.70
2023-05-01T08:37:32.951Z,101154.61
2023-05-01T08:40:08.867Z,101153.81
2023-05-01T08:42:40.045Z,101158.42
2023-05-01T08:45:12.173Z,101159.37
2023-05-01T08:47:43.595Z,101158.13
2023-05-01T08:50:14.576Z,101158.52
2023-05-01T08:52:45.820Z,101156.25
2023-05-01T08:55:16.993Z,101159.13
2023-05-01T08:57:48.016Z,101160.55
2023-05-01T09:00:20.911Z,101155.79
2023-05-01T09:02:51.940Z,101158.11
2023-05-01T09:05:22.808Z,101157.70
2023-05-01T09:07:53.534Z,101151.84
2023-05-01T09:10:24.400Z,101149.23
2023-05-01T09:12:56.330Z,101149.75
2023-05-01T09:15:28.382Z,101150.30
2023-05-01T09:18:00.763Z,101152.59
2023-05-01T09:20:33.878Z,101152.34
2023-05-01T09:23:04.706Z,101149.00
2023-05-01T09:25:35.389Z,101153.35
2023-05-01T09:28:07.803Z,101153.95
2023-05-01T09:30:39.496Z,101148.59
2023-05-01T09:33:11.982Z,101147.76
2023-05-01T09:35:52.954Z,101148.93
2023-05-01T09:38:24.347Z,101147.84
2023-05-01T09:40:56.907Z,101149.52
2023-05-01T09:43:28.328Z,101151.34
2023-05-01T09:46:03.948Z,101149.98
2023-05-01T09:48:36.152Z,101148.02
2023-05-01T09:51:24.168Z,101147.79
2023-05-01T09:53:55.648Z,101147.57
2023-05-01T09:56:26.860Z,101145.45
2023-05-01T09:58:58.893Z,101148.85
2023-05-01T10:01:42.270Z,101152.66
2023-05-01T10:04:13.526Z,101150.79
2023-05-01T10:06:44.365Z,101147.23
2023-05-01T10:09:18.431Z,101145.89
2023-05-01T10:11:53.891Z,101148.48
2023-05-01T10:14:27.204Z,101140.10
2023-05-01T10:16:58.305Z,101143.52
2023-05-01T10:19:29.344Z,101142.80
2023-05-01T10:22:00.234Z,101142.96
2023-05-01T10:24:31.107Z,101137.96
2023-05-01T10:27:03.568Z,101138.47
2023-05-01T10:29:34.476Z,101138.86
2023-05-01T10:32:06.178Z,101138.70
2023-05-01T10:34:37.102Z,101143.08
2023-05-01T10:37:10.829Z,101140.74
2023-05-01T10:39:41.917Z,101136.33
2023-05-01T10:42:14.554Z,101132.64
2023-05-01T10:44:48.053Z,101134.80
2023-05-01T10:47:37.953Z,101132.55
2023-05-01T10:50:09.261Z,101125.95
2023-05-01T10:52:56.247Z,101128.92
2023-05-01T10:55:36.533Z,101129.45
2023-05-01T10:58:07.405Z,101125.83
2023-05-01T11:00:38.294Z,101126.84
2023-05-01T11:03:26.631Z,101127.64
2023-05-01T11:06:09.960Z,101135.98
2023-05-01T11:08:40.754Z,101132.63
2023-05-01T11:11:28.713Z,101137.88
2023-05-01T11:14:02.108Z,101137.45
2023-05-01T11:16:49.710Z,101136.66
2023-05-01T11:19:53.818Z,101138.67
2023-05-01T11:22:24.625Z,101138.76
2023-05-01T11:25:01.091Z,101141.02
2023-05-01T11:27:34.602Z,101142.36
2023-05-01T11:30:05.949Z,101142.11
2023-05-01T11:32:36.841Z,101139.17
2023-05-01T11:35:09.238Z,101136.52
2023-05-01T11:37:44.572Z,101133.81
2023-05-01T11:40:22.767Z,101132.10
2023-05-01T11:43:00.164Z,101128.38
2023-05-01T11:45:31.136Z,101117.10
2023-05-01T11:48:04.606Z,101113.35
2023-05-01T11:50:36.907Z,101110.15
2023-05-01T11:53:11.819Z,101105.91
2023-05-01T11:55:42.761Z,101108.17
2023-05-01T11:58:13.585Z,101105.55
2023-05-01T12:00:44.601Z,101102.47
2023-05-01T12:03:15.801Z,101104.52
2023-05-01T12:05:46.921Z,101108.28
2023-05-01T12:08:18.883Z,101108.77
2023-05-01T12:10:50.466Z,101106.06
2023-05-01T12:13:21.221Z,101105.45
2023-05-01T12:15:52.771Z,101104.98
2023-05-01T12:18:23.859Z,101106.55
2023-05-01T12:20:57.376Z,101103.65
2023-05-01T12:23:33.237Z,101100.61
2023-05-01T12:26:04.474Z,101096.64
2023-05-01T12:28:35.536Z,101091.66
2023-05-01T12:31:09.769Z,101087.75
2023-05-01T12:33:45.481Z,101086.27
2023-05-01T12:36:20.812Z,101079.20
2023-05-01T12:38:58.605Z,101085.02
2023-05-01T12:41:36.326Z,101085.69
2023-05-01T12:44:18.128Z,101085.23
2023-05-01T12:46:55.521Z,101084.83
2023-05-01T12:49:26.651Z,101085.08
2023-05-01T12:51:58.072Z,101085.33
2023-05-01T12:54:30.794Z,101084.67
2023-05-01T12:57:08.336Z,101084.52
2023-05-01T12:59:39.735Z,101088.07
2023-05-01T13:02:12.643Z,101088.48
2023-05-01T13:04:43.574Z,101090.85
2023-05-01T13:07:15.227Z,101089.32
2023-05-01T13:09:54.412Z,101089.82
2023-05-01T13:12:25.569Z,101084.96
2023-05-01T13:14:56.383Z,101080.79
2023-05-01T13:17:27.679Z,101075.65
2023-05-01T13:19:59.873Z,101074.12
2023-05-01T13:22:32.592Z,101073.77
2023-05-01T13:25:04.595Z,101070.20
2023-05-01T13:27:35.996Z,101068.65
2023-05-01T13:30:11.856Z,101061.59
2023-05-01T13:32:43.535Z,101058.38
2023-05-01T13:35:21.144Z,101062.58
2023-05-01T13:38:02.258Z,101065.84
2023-05-01T13:40:41.497Z,101066.33
2023-05-01T13:43:24.736Z,101064.39
2023-05-01T13:46:09.385Z,101066.02
2023-05-01T13:48:55.135Z,101065.48
2023-05-01T13:51:44.864Z,101069.07
2023-05-01T13:54:20.504Z,101067.14
2023-05-01T13:57:02.084Z,101065.22
2023-05-01T13:59:35.165Z,101068.25
2023-05-01T14:02:10.779Z,101071.77
2023-05-01T14:04:45.611Z,101072.48
2023-05-01T14:07:25.185Z,101074.20
2023-05-01T14:10:12.396Z,101073.42
2023-05-01T14:12:44.057Z,101077.87
2023-05-01T14:15:30.263Z,101076.65
2023-05-01T14:18:08.470Z,101076.29
2023-05-01T14:20:45.029Z,101077.61
2023-05-01T14:26:18.905Z,101078.63
2023-05-01T14:31:56.030Z,101085.20
2023-05-01T14:34:29.104Z,101083.86
2023-05-01T14:37:00.794Z,101082.64
2023-05-01T14:45:34.501Z,101085.20
2023-05-01T14:48:26.227Z,101082.54
2023-05-01T14:54:23.472Z,101087.13
2023-05-01T14:56:56.557Z,101086.66
2023-05-01T14:59:33.934Z,101083.63
2023-05-01T15:02:26.529Z,101087.83
2023-05-01T15:08:07.061Z,101090.23
2023-05-01T15:10:38.937Z,101086.81
2023-05-01T15:13:15.842Z,101086.13
2023-05-01T15:15:47.298Z,101084.78
2023-05-01T15:18:32.103Z,101083.14
2023-05-01T15:21:03.467Z,101083.94
2023-05-01T15:23:34.506Z,101080.05
2023-05-01T15:26:07.288Z,101078.93
2023-05-01T15:28:39.077Z,101079.09
2023-05-01T15:31:10.576Z,101086.41
2023-05-01T15:33:42.669Z,101090.37
2023-05-01T15:36:13.859Z,101092.71
2023-05-01T15:38:45.406Z,101089.34
2023-05-01T15:41:18.912Z,101090.10
2023-05-01T15:43:50.235Z,101092.96
2023-05-01T15:46:23.533Z,101092.40
2023-05-01T15:48:54.530Z,101089.59
2023-05-01T15:51:26.138Z,101089.19
2023-05-01T15:53:57.270Z,101090.48
2023-05-01T15:56:28.175Z,101088.12
2023-05-01T15:58:58.927Z,101090.03
2023-05-01T16:01:29.862Z,101092.39
2023-05-01T16:04:00.714Z,101091.42
2023-05-01T16:06:32.027Z,101094.16
2023-05-01T16:09:03.003Z,101095.60
2023-05-01T16:11:33.832Z,101095.23
2023-05-01T16:14:04.729Z,101096.95
2023-05-01T16:16:37.681Z,101102.88
2023-05-01T16:19:08.656Z,101106.77
2023-05-01T16:21:39.360Z,101109.90
2023-05-01T16:24:10.194Z,101118.28
2023-05-01T16:26:41.087Z,101125.39
2023-05-01T16:29:11.931Z,101128.10
2023-05-01T16:31:47.337Z,101132.52
2023-05-01T16:34:19.217Z,101132.11
2023-05-01T16:36:50.066Z,101127.42
2023-05-01T16:39:21.685Z,101129.73
2023-05-01T16:41:53.468Z,101133.46
2023-05-01T16:44:24.537Z,101140.21
2023-05-01T16:46:56.100Z,101137.27
2023-05-01T16:49:28.127Z,101140.02
2023-05-01T16:51:58.900Z,101137.42
2023-05-01T16:54:35.599Z,101141.77
2023-05-01T16:57:06.966Z,101140.99
2023-05-01T16:59:38.566Z,101142.90
2023-05-01T17:02:09.296Z,101142.40
2023-05-01T17:04:40.412Z,101149.39
2023-05-01T17:07:11.244Z,101152.03
2023-05-01T17:09:42.171Z,101152.87
2023-05-01T17:12:13.032Z,101155.59
2023-05-01T17:14:46.898Z,101156.20
2023-05-01T17:17:20.490Z,101160.27
2023-05-01T17:19:51.426Z,101163.67
2023-05-01T17:22:23.680Z,101162.15
2023-05-01T17:24:54.483Z,101170.70
2023-05-01T17:27:25.240Z,101172.34
2023-05-01T17:29:56.267Z,101175.61
2023-05-01T17:32:36.558Z,101176.61
2023-05-01T17:35:09.177Z,101176.84
2023-05-01T17:37:41.305Z,101181.63
2023-05-01T17:40:12.864Z,101185.36
2023-05-01T17:42:44.711Z,101190.95
2023-05-01T17:45:15.473Z,101191.77
2023-05-01T17:47:46.847Z,101197.02
2023-05-01T17:50:17.803Z,101198.81
2023-05-01T17:52:49.176Z,101200.83
2023-05-01T17:55:20.253Z,101202.80
2023-05-01T17:57:52.580Z,101203.77
2023-05-01T18:00:23.644Z,101209.29
2023-05-01T18:02:54.804Z,101212.79
2023-05-01T18:05:26.278Z,101213.95
2023-05-01T18:07:57.323Z,101217.47
2023-05-01T18:10:31.455Z,101219.63
2023-05-01T18:13:02.365Z,101220.62
2023-05-01T18:15:33.284Z,101221.24
2023-05-01T18:18:04.344Z,101225.58
2023-05-01T18:20:35.112Z,101234.95
2023-05-01T18:23:06.986Z,101233.97
2023-05-01T18:25:38.230Z,101237.91
2023-05-01T18:28:09.162Z,101235.36
2023-05-01T18:30:39.972Z,101235.34
2023-05-01T18:33:11.019Z,101240.59
2023-05-01T18:35:42.393Z,101242.09
2023-05-01T18:38:13.238Z,101247.11
2023-05-01T18:40:43.972Z,101247.66
2023-05-01T18:43:14.940Z,101251.59
2023-05-01T18:45:45.846Z,101253.71
2023-05-01T18:48:16.742Z,101256.94
2023-05-01T18:51:00.812Z,101260.31
2023-05-01T18:53:38.026Z,101259.83
2023-05-01T18:56:09.601Z,101263.31
2023-05-01T18:58:40.432Z,101262.52
2023-05-01T19:01:11.415Z,101267.63
2023-05-01T19:03:42.285Z,101269.13
2023-05-01T19:06:13.112Z,101273.33
2023-05-01T19:08:43.920Z,101273.35
2023-05-01T19:11:14.811Z,101276.69
2023-05-01T19:13:45.676Z,101277.40
2023-05-01T19:16:16.681Z,101277.36
2023-05-01T19:18:48.548Z,101281.06
2023-05-01T19:21:19.709Z,101282.72
2023-05-01T19:23:50.471Z,101285.89
2023-05-01T19:26:21.301Z,101285.93
2023-05-01T19:28:52.034Z,101286.16
2023-05-01T19:31:25.296Z,101283.53
2023-05-01T19:33:56.358Z,101290.01
2023-05-01T19:36:27.377Z,101287.81
2023-05-01T19:39:00.824Z,101286.12
2023-05-01T19:41:32.948Z,101291.27
2023-05-01T19:44:08.490Z,101291.86
2023-05-01T19:47:16.661Z,101291.64
2023-05-01T19:49:44.782Z,101293.92
2023-05-01T19:52:12.973Z,101293.09
2023-05-01T19:54:44.002Z,101293.89
2023-05-01T19:57:12.743Z,101300.45
2023-05-01T19:59:42.094Z,101299.04
2023-05-01T20:02:10.311Z,101297.71
2023-05-01T20:04:41.109Z,101299.54
2023-05-01T20:07:09.662Z,101299.92
2023-05-01T20:09:38.147Z,101299.23
2023-05-01T20:12:06.397Z,101302.34
2023-05-01T20:14:34.594Z,101298.17
2023-05-01T20:17:03.084Z,101302.63
2023-05-01T20:19:33.880Z,101305.40
2023-05-01T20:22:05.015Z,101304.80
2023-05-01T20:24:34.990Z,101305.94
2023-05-01T20:27:03.934Z,101306.67
2023-05-01T20:29:32.154Z,101305.86
2023-05-01T20:32:00.548Z,101308.34
2023-05-01T20:34:28.890Z,101308.73
2023-05-01T20:36:57.210Z,101311.40
2023-05-01T20:39:25.564Z,101313.74
2023-05-01T20:41:53.756Z,101316.73
2023-05-01T20:44:24.443Z,101315.67
2023-05-01T20:46:52.769Z,101319.23
2023-05-01T20:49:22.441Z,101320.20
2023-05-01T20:51:50.629Z,101324.46
2023-05-01T20:54:18.786Z,101325.34
2023-05-01T20:56:46.797Z,101329.77
2023-05-01T20:59:15.995Z,101332.04
2023-05-01T21:01:44.199Z,101332.33
2023-05-01T21:04:13.288Z,101333.45
2023-05-01T21:06:42.020Z,101331.17
2023-05-01T21:09:14.430Z,101331.03
2023-05-01T21:11:43.579Z,101334.17
2023-05-01T21:14:11.775Z,101335.67
2023-05-01T21:16:40.525Z,101336.66
2023-05-01T21:19:08.608Z,101336.18
2023-05-01T21:21:36.762Z,101339.70
2023-05-01T21:24:05.614Z,101339.30
2023-05-01T21:26:36.635Z,101340.27
2023-05-01T21:29:07.532Z,101345.59
2023-05-01T21:31:37.875Z,101345.02
2023-05-01T21:34:06.005Z,101346.52
2023-05-01T21:36:47.201Z,101347.58
2023-05-01T21:39:18.868Z,101348.81
2023-05-01T21:41:48.259Z,101349.99
2023-05-01T21:44:17.846Z,101352.61
2023-05-01T21:46:48.826Z,101351.09
2023-05-01T21:49:22.384Z,101357.58
2023-05-01T21:51:50.620Z,101361.90
2023-05-01T21:54:21.057Z,101368.05
2023-05-01T21:56:49.831Z,101371.27
2023-05-01T21:59:18.320Z,101371.95
2023-05-01T22:01:46.436Z,101374.84
2023-05-01T22:04:16.844Z,101372.15
2023-05-01T22:06:45.431Z,101373.86
2023-05-01T22:09:13.802Z,101377.41
2023-05-01T22:11:42.033Z,101371.96
2023-05-01T22:14:10.229Z,101373.57
2023-05-01T22:16:38.499Z,101373.88
2023-05-01T22:19:06.747Z,101379.35
2023-05-01T22:21:34.911Z,101375.55
2023-05-01T22:24:03.179Z,101375.20
2023-05-01T22:26:31.412Z,101375.35
2023-05-01T22:28:59.569Z,101374.46
2023-05-01T22:31:27.627Z,101376.61
2023-05-01T22:33:55.906Z,101377.70
2023-05-01T22:36:24.189Z,101379.18
2023-05-01T22:38:52.311Z,101373.54
2023-05-01T22:41:20.449Z,101378.80
2023-05-01T22:43:48.723Z,101379.26
2023-05-01T22:46:17.227Z,101378.05
2023-05-01T22:48:45.378Z,101378.67
2023-05-01T22:51:13.425Z,101387.21
2023-05-01T22:53:41.693Z,101385.04
2023-05-01T22:56:09.814Z,101381.17
2023-05-01T22:58:37.991Z,101380.00
2023-05-01T23:01:06.329Z,101374.23
2023-05-01T23:03:36.428Z,101371.70
2023-05-01T23:06:06.512Z,101368.06
2023-05-01T23:08:34.551Z,101368.89
2023-05-01T23:11:02.742Z,101371.88
2023-05-01T23:13:31.748Z,101369.59
2023-05-01T23:15:59.876Z,101366.83
2023-05-01T23:18:31.173Z,101362.23
2023-05-01T23:20:59.375Z,101369.48
2023-05-01T23:23:29.090Z,101371.11
2023-05-01T23:32:21.867Z,101366.84
2023-05-01T23:34:53.630Z,101366.87
2023-05-01T23:37:25.257Z,101363.58
2023-05-01T23:39:58.889Z,101362.23
2023-05-01T23:42:30.392Z,101363.90
2023-05-01T23:45:01.384Z,101360.88
2023-05-01T23:47:32.238Z,101363.36
2023-05-01T23:50:03.273Z,101362.71
2023-05-01T23:52:34.094Z,101366.09
2023-05-01T23:55:05.209Z,101366.54
2023-05-01T23:57:36.164Z,101365.00
